Impacts TAF Board
For situational awareness. Not to be used for flight planning purposes.
IDs:

KSFO - San Francisco Intl, CA, US

Issued at 1120 UTC 30 Mar 2020
Updated at 1204 UTC 30 Mar 2020
Potential Impact None Slight Moderate High
Time1156Z 30/13Z 30/14Z 30/15Z 30/16Z 30/17Z 30/18Z 30/19Z 30/20Z 30/21Z 30/22Z 30/23Z 31/00Z 31/01Z>>
Type OBS PRVL PRVL PRVL PRVL PRVL PRVL PRVL PRVL PRVL PRVL PRVL PRVL PRVL
VIS 10 >6 >6 >6 >6 >6 >6 >6 >6 >6 >6 >6 >6 >6
CIG 27 25 25 25 25 25 40 40 50 50 -- -- -- --
Cover OVC OVC OVC OVC OVC OVC BKN BKN BKN BKN SCT SCT SCT SCT
FltCat MVFR MVFR MVFR MVFR MVFR MVFR VFR VFR VFR VFR VFR VFR VFR VFR
WX -- -- -- -- -- -- -- -- -- -- -- -- -- --
WDir 240 VRB VRB VRB VRB VRB 160 160 250 250 270 270 270 270
WSpd 3 5 5 5 5 5 6 6 8 8 13 13 13 13
WGst -- -- -- -- -- -- -- -- -- -- -- -- -- --
Raw TAF
KSFO 301120Z 3012/3118 VRB05KT P6SM OVC025
  FM301800 16006KT P6SM SCT025 BKN040
  FM302000 25008KT P6SM FEW020 SCT030 BKN050
  FM302200 27013KT P6SM FEW030 SCT045
  FM310300 26009KT P6SM BKN020
  FM311200 VRB04KT P6SM BKN015


Raw METAR
KSFO 301156Z 24003KT 10SM OVC027 13/08 A3025 RMK AO2 SLP244 70020 T01280078 10128 20094 53012
KSFO 301056Z 24003KT 10SM OVC026 11/08 A3024 RMK AO2 SLP240 T01110083
KSFO 301005Z 25004KT 10SM FEW018 BKN026 BKN030 12/08 A3023 RMK AO2 T01170083
KSFO 300956Z 25007KT 10SM SCT023 BKN030 12/08 A3023 RMK AO2 SLP235 T01220078

METAR Board
Radar Display
Forecast Discussion
For situational awareness. Not to be used for flight planning purposes.